Time;durP1;ratioP1;P1;durP2;ratioP2;P2;SDS_P1;SDS_P2;PMS_P1;PMS_P2;Temp;Humidity;BMP_temperature;BMP_pressure;BME280_temperature;BME280_humidity;BME280_pressure;Samples;Min_cycle;Max_cycle;Signal;HPM_P1;HPM_P2
2022/04/02 00:02:16;;;;;;;3.42;1.33;;;;;;;;;;6267926;22;20652;-91
2022/04/02 00:04:42;;;;;;;1.65;0.88;;;;;;;;;;6268394;22;20017;-91
2022/04/02 00:07:10;;;;;;;1.67;0.95;;;;;;;;;;6268005;22;20098;-90
2022/04/02 00:09:36;;;;;;;0.45;0.45;;;;;;;;;;6268210;22;20011;-91
2022/04/02 00:12:02;;;;;;;8.75;0.73;;;;;;;;;;6267519;22;20022;-92
2022/04/02 00:14:30;;;;;;;1.55;1.15;;;;;;;;;;6267997;22;20019;-91
2022/04/02 00:17:00;;;;;;;0.88;0.55;;;;;;;;;;6303384;22;20019;-91
2022/04/02 00:19:29;;;;;;;0.50;0.50;;;;;;;;;;6267280;22;20027;-92
2022/04/02 00:21:57;;;;;;;1.60;1.05;;;;;;;;;;6266415;22;20011;-91
2022/04/02 00:24:24;;;;;;;0.85;0.70;;;;;;;;;;6292962;22;20026;-91
2022/04/02 00:26:55;;;;;;;0.60;0.60;;;;;;;;;;6267228;22;20011;-91
2022/04/02 00:29:24;;;;;;;1.55;1.25;;;;;;;;;;6267023;22;20019;-90
2022/04/02 00:31:50;;;;;;;3.05;1.35;;;;;;;;;;6267042;22;20011;-91
2022/04/02 00:34:16;;;;;;;0.88;0.77;;;;;;;;;;6269250;22;20020;-91
2022/04/02 00:36:44;;;;;;;2.13;1.38;;;;;;;;;;6269581;22;20050;-92
2022/04/02 00:39:11;;;;;;;2.17;1.17;;;;;;;;;;6269115;22;20026;-90
2022/04/02 00:41:39;;;;;;;1.95;1.10;;;;;;;;;;6268590;22;20011;-91
2022/04/02 00:44:12;;;;;;;2.72;1.27;;;;;;;;;;6269898;22;20037;-91
2022/04/02 00:46:39;;;;;;;1.95;1.08;;;;;;;;;;6269783;22;20015;-91
2022/04/02 00:49:08;;;;;;;2.17;1.02;;;;;;;;;;6268675;22;20013;-92
2022/04/02 00:51:41;;;;;;;1.75;1.15;;;;;;;;;;6270388;22;20068;-93
2022/04/02 00:54:08;;;;;;;3.72;1.75;;;;;;;;;;6268951;22;20011;-91
2022/04/02 00:56:40;;;;;;;0.60;0.60;;;;;;;;;;6269449;22;20035;-91
2022/04/02 00:59:08;;;;;;;1.38;0.88;;;;;;;;;;6270203;22;20022;-91
2022/04/02 01:01:35;;;;;;;2.13;1.58;;;;;;;;;;6267905;22;20051;-92
2022/04/02 01:04:02;;;;;;;2.30;1.37;;;;;;;;;;6267374;22;20046;-91
2022/04/02 01:06:29;;;;;;;1.13;0.98;;;;;;;;;;6242392;22;20011;-92
2022/04/02 01:08:55;;;;;;;2.28;1.30;;;;;;;;;;6268536;22;20011;-93
2022/04/02 01:11:21;;;;;;;2.70;1.52;;;;;;;;;;6269184;22;20023;-92
2022/04/02 01:13:51;;;;;;;1.33;0.95;;;;;;;;;;6269232;22;20011;-92
2022/04/02 01:16:18;;;;;;;1.15;0.80;;;;;;;;;;6268816;22;20020;-92
2022/04/02 01:18:47;;;;;;;1.75;0.98;;;;;;;;;;6267693;22;20026;-92
2022/04/02 01:21:13;;;;;;;1.92;1.17;;;;;;;;;;6267940;22;20079;-92
2022/04/02 01:23:40;;;;;;;1.67;1.20;;;;;;;;;;6268812;22;20063;-92
2022/04/02 01:26:08;;;;;;;5.10;1.50;;;;;;;;;;6269257;22;20061;-92
2022/04/02 01:28:37;;;;;;;1.38;1.10;;;;;;;;;;6268488;22;20471;-91
2022/04/02 01:31:05;;;;;;;4.75;0.80;;;;;;;;;;6267689;22;20098;-92
2022/04/02 01:33:31;;;;;;;1.70;0.80;;;;;;;;;;6268236;22;20023;-92
2022/04/02 01:35:58;;;;;;;0.45;0.45;;;;;;;;;;6267649;22;20092;-92
2022/04/02 01:38:28;;;;;;;0.65;0.55;;;;;;;;;;6294226;22;20022;-92
2022/04/02 01:40:54;;;;;;;1.77;0.95;;;;;;;;;;6267928;22;20448;-92
2022/04/02 01:43:21;;;;;;;2.55;1.35;;;;;;;;;;6267271;22;20016;-93
2022/04/02 01:45:53;;;;;;;0.57;0.57;;;;;;;;;;6268285;22;20007;-93
2022/04/02 01:48:27;;;;;;;1.90;1.13;;;;;;;;;;6267464;22;20046;-92
2022/04/02 01:50:54;;;;;;;1.52;1.00;;;;;;;;;;6268305;22;20015;-91
2022/04/02 01:53:22;;;;;;;0.40;0.40;;;;;;;;;;6268375;22;20035;-92
2022/04/02 01:55:48;;;;;;;3.47;1.42;;;;;;;;;;6268314;22;20019;-91
2022/04/02 01:58:14;;;;;;;1.38;0.90;;;;;;;;;;6267231;22;20019;-91
2022/04/02 02:00:42;;;;;;;1.13;1.00;;;;;;;;;;6267293;22;20018;-91
2022/04/02 02:03:08;;;;;;;0.68;0.60;;;;;;;;;;6268886;22;20040;-91
2022/04/02 02:05:35;;;;;;;0.50;0.50;;;;;;;;;;6267096;22;20018;-92
2022/04/02 02:08:02;;;;;;;1.77;1.23;;;;;;;;;;6267745;22;20018;-92
2022/04/02 02:10:28;;;;;;;0.90;0.90;;;;;;;;;;6267925;22;20015;-92
2022/04/02 02:13:01;;;;;;;0.52;0.50;;;;;;;;;;6243989;22;20067;-91
2022/04/02 02:15:28;;;;;;;0.50;0.50;;;;;;;;;;6267272;22;20015;-92
2022/04/02 02:17:54;;;;;;;0.47;0.40;;;;;;;;;;6267560;22;20046;-91
2022/04/02 02:20:20;;;;;;;0.50;0.50;;;;;;;;;;6266997;22;20403;-90
2022/04/02 02:22:47;;;;;;;2.40;0.68;;;;;;;;;;6267681;22;20016;-91
2022/04/02 02:25:15;;;;;;;0.63;0.60;;;;;;;;;;6268269;22;20047;-91
2022/04/02 02:27:42;;;;;;;0.63;0.63;;;;;;;;;;6268397;22;20029;-92
2022/04/02 02:30:09;;;;;;;0.60;0.60;;;;;;;;;;6268416;22;20041;-92
2022/04/02 02:32:39;;;;;;;0.40;0.40;;;;;;;;;;6293699;22;20102;-92
2022/04/02 02:38:10;;;;;;;1.00;0.80;;;;;;;;;;6260947;22;20348;-91
2022/04/02 02:40:37;;;;;;;2.15;1.33;;;;;;;;;;6268996;22;20019;-92
2022/04/02 02:43:04;;;;;;;1.40;1.08;;;;;;;;;;6268690;22;20015;-92
2022/04/02 02:45:33;;;;;;;0.85;0.73;;;;;;;;;;6269343;22;20038;-91
2022/04/02 02:48:00;;;;;;;1.85;1.38;;;;;;;;;;6268439;22;20007;-92
2022/04/02 02:50:27;;;;;;;1.95;1.17;;;;;;;;;;6268230;22;20019;-92
2022/04/02 02:52:56;;;;;;;2.20;1.33;;;;;;;;;;6268180;22;20108;-93
2022/04/02 02:55:22;;;;;;;2.30;1.02;;;;;;;;;;6268092;22;20019;-90
2022/04/02 02:57:48;;;;;;;3.72;1.67;;;;;;;;;;6267041;22;20022;-91
2022/04/02 03:00:16;;;;;;;1.17;0.93;;;;;;;;;;6268983;22;20019;-92
2022/04/02 03:02:43;;;;;;;2.47;1.40;;;;;;;;;;6268511;22;20023;-92
2022/04/02 03:05:12;;;;;;;5.63;1.73;;;;;;;;;;6268472;22;20011;-92
2022/04/02 03:07:41;;;;;;;2.45;1.48;;;;;;;;;;6268450;22;20047;-92
2022/04/02 03:10:08;;;;;;;2.47;1.63;;;;;;;;;;6270124;22;20063;-91
2022/04/02 03:12:37;;;;;;;9.27;2.38;;;;;;;;;;6269446;22;20015;-92
2022/04/02 03:15:04;;;;;;;7.60;1.73;;;;;;;;;;6269089;22;20595;-91
2022/04/02 03:17:35;;;;;;;1.45;0.80;;;;;;;;;;6268711;22;20022;-91
2022/04/02 03:20:02;;;;;;;1.85;0.90;;;;;;;;;;6268048;22;20015;-91
2022/04/02 03:22:30;;;;;;;3.00;0.93;;;;;;;;;;6267583;22;20012;-92
2022/04/02 03:24:59;;;;;;;0.70;0.70;;;;;;;;;;6267799;22;20018;-92
2022/04/02 03:27:25;;;;;;;0.30;0.30;;;;;;;;;;6267374;22;20038;-92
2022/04/02 03:29:51;;;;;;;0.57;0.57;;;;;;;;;;6267610;22;20467;-92
2022/04/02 03:32:17;;;;;;;0.40;0.40;;;;;;;;;;6267795;22;20011;-92
2022/04/02 03:34:43;;;;;;;1.30;0.93;;;;;;;;;;6267233;22;20019;-91
2022/04/02 03:37:09;;;;;;;1.30;1.00;;;;;;;;;;6267213;22;20015;-91
2022/04/02 03:39:40;;;;;;;0.50;0.50;;;;;;;;;;6268191;22;20015;-91
2022/04/02 03:42:09;;;;;;;0.50;0.50;;;;;;;;;;6268949;22;20019;-92
2022/04/02 03:44:36;;;;;;;1.30;0.93;;;;;;;;;;6268200;22;20015;-91
2022/04/02 03:47:09;;;;;;;0.40;0.40;;;;;;;;;;6267770;22;20015;-90
2022/04/02 03:49:36;;;;;;;0.63;0.63;;;;;;;;;;6268059;22;20015;-92
2022/04/02 03:52:02;;;;;;;1.10;0.82;;;;;;;;;;6267695;22;20455;-91
2022/04/02 03:54:28;;;;;;;0.40;0.40;;;;;;;;;;6268834;22;20015;-92
2022/04/02 03:56:55;;;;;;;0.75;0.75;;;;;;;;;;6268941;22;20015;-92
2022/04/02 03:59:24;;;;;;;0.75;0.75;;;;;;;;;;6267984;22;20019;-92
2022/04/02 04:01:53;;;;;;;0.40;0.40;;;;;;;;;;6268977;22;20007;-93
2022/04/02 04:04:19;;;;;;;0.30;0.30;;;;;;;;;;6268911;22;20011;-92
2022/04/02 04:06:46;;;;;;;0.95;0.85;;;;;;;;;;6268220;22;20015;-92
2022/04/02 04:09:12;;;;;;;0.40;0.40;;;;;;;;;;6293793;22;20011;-91
2022/04/02 04:11:41;;;;;;;0.50;0.50;;;;;;;;;;6297261;22;20451;-92
2022/04/02 04:14:09;;;;;;;0.90;0.77;;;;;;;;;;6270606;22;20444;-91
2022/04/02 04:16:39;;;;;;;2.70;1.20;;;;;;;;;;6296326;22;20011;-92
2022/04/02 04:19:05;;;;;;;2.03;1.15;;;;;;;;;;6270675;22;20011;-93
2022/04/02 04:21:32;;;;;;;0.40;0.40;;;;;;;;;;6270543;22;20019;-92
2022/04/02 04:23:58;;;;;;;0.50;0.50;;;;;;;;;;6270560;22;20011;-91
2022/04/02 04:26:27;;;;;;;3.42;1.20;;;;;;;;;;6271800;22;20030;-91
2022/04/02 04:29:02;;;;;;;0.52;0.52;;;;;;;;;;6295738;22;20022;-93
2022/04/02 04:31:29;;;;;;;2.38;1.23;;;;;;;;;;6270875;22;20027;-92
2022/04/02 04:33:55;;;;;;;0.60;0.60;;;;;;;;;;6270935;22;20018;-92
2022/04/02 04:36:24;;;;;;;0.40;0.40;;;;;;;;;;6271434;22;20382;-90
2022/04/02 04:38:53;;;;;;;0.40;0.40;;;;;;;;;;6271462;22;20019;-93
2022/04/02 04:41:25;;;;;;;0.70;0.60;;;;;;;;;;6270952;22;20022;-92
2022/04/02 04:43:53;;;;;;;0.40;0.40;;;;;;;;;;6270818;22;20011;-91
2022/04/02 04:46:20;;;;;;;0.60;0.60;;;;;;;;;;6271017;22;20035;-92
2022/04/02 04:48:49;;;;;;;2.17;1.08;;;;;;;;;;6295151;22;20439;-93
2022/04/02 04:51:23;;;;;;;2.38;1.10;;;;;;;;;;6271744;22;20019;-92
2022/04/02 04:53:52;;;;;;;1.33;1.02;;;;;;;;;;6272751;22;20018;-92
2022/04/02 04:56:18;;;;;;;0.82;0.68;;;;;;;;;;6271430;22;20015;-92
2022/04/02 04:58:44;;;;;;;0.68;0.68;;;;;;;;;;6272092;22;20019;-93
2022/04/02 05:01:12;;;;;;;1.73;1.25;;;;;;;;;;6271745;22;20015;-93
2022/04/02 05:03:39;;;;;;;0.57;0.57;;;;;;;;;;6271889;22;20514;-93
2022/04/02 05:06:08;;;;;;;0.88;0.82;;;;;;;;;;6272144;22;20011;-92
2022/04/02 05:08:34;;;;;;;0.55;0.55;;;;;;;;;;6271602;22;20022;-94
2022/04/02 05:11:03;;;;;;;30.70;1.73;;;;;;;;;;6272411;22;20532;-93
2022/04/02 05:13:30;;;;;;;0.50;0.50;;;;;;;;;;6272496;22;20021;-93
2022/04/02 05:15:56;;;;;;;2.42;1.13;;;;;;;;;;6271825;22;20440;-92
2022/04/02 05:18:22;;;;;;;0.77;0.77;;;;;;;;;;6272210;22;20044;-93
2022/04/02 05:20:54;;;;;;;1.27;1.17;;;;;;;;;;6270534;22;20042;-92
2022/04/02 05:23:20;;;;;;;2.35;1.30;;;;;;;;;;6296422;22;20015;-92
2022/04/02 05:25:47;;;;;;;0.65;0.65;;;;;;;;;;6271807;22;20011;-93
2022/04/02 05:28:16;;;;;;;2.70;1.20;;;;;;;;;;6247217;22;20337;-93
2022/04/02 05:30:45;;;;;;;1.17;0.93;;;;;;;;;;6272426;22;20188;-93
2022/04/02 05:33:17;;;;;;;1.33;0.88;;;;;;;;;;6273026;22;20038;-92
2022/04/02 05:35:43;;;;;;;1.05;0.75;;;;;;;;;;6272228;22;20023;-93
2022/04/02 05:38:09;;;;;;;1.17;0.82;;;;;;;;;;6271530;22;20066;-92
2022/04/02 05:40:39;;;;;;;0.60;0.60;;;;;;;;;;6271873;22;20040;-92
2022/04/02 05:43:11;;;;;;;1.48;1.13;;;;;;;;;;6272221;22;20015;-92
2022/04/02 05:45:38;;;;;;;2.13;1.38;;;;;;;;;;6271668;22;20030;-93
2022/04/02 05:48:07;;;;;;;2.40;1.15;;;;;;;;;;6246151;22;20015;-92
2022/04/02 05:50:33;;;;;;;1.23;0.75;;;;;;;;;;6272274;22;20039;-93
2022/04/02 05:53:02;;;;;;;0.73;0.57;;;;;;;;;;6272425;22;20045;-93
2022/04/02 05:55:35;;;;;;;0.50;0.50;;;;;;;;;;6271665;22;20015;-92
2022/04/02 05:58:01;;;;;;;0.60;0.60;;;;;;;;;;6271866;22;20098;-92
2022/04/02 06:00:30;;;;;;;3.13;1.27;;;;;;;;;;6271797;22;20021;-93
2022/04/02 06:02:59;;;;;;;2.17;1.05;;;;;;;;;;6272617;22;20066;-92
2022/04/02 06:05:28;;;;;;;11.18;1.77;;;;;;;;;;6298395;22;20018;-93
2022/04/02 06:07:58;;;;;;;1.98;1.05;;;;;;;;;;6298326;22;20011;-92
2022/04/02 06:10:27;;;;;;;3.92;1.30;;;;;;;;;;6295735;22;20124;-93
2022/04/02 06:12:54;;;;;;;2.17;1.13;;;;;;;;;;6270504;22;20023;-92
2022/04/02 06:15:21;;;;;;;2.88;1.48;;;;;;;;;;6295328;22;20011;-91
2022/04/02 06:17:48;;;;;;;2.30;1.42;;;;;;;;;;6270817;22;20025;-93
2022/04/02 06:20:14;;;;;;;5.32;2.15;;;;;;;;;;6270309;22;20054;-94
2022/04/02 06:22:40;;;;;;;2.90;1.35;;;;;;;;;;6270488;22;20011;-93
2022/04/02 06:25:06;;;;;;;5.15;2.65;;;;;;;;;;6271792;22;20055;-93
2022/04/02 06:27:39;;;;;;;4.72;1.98;;;;;;;;;;6269901;22;20015;-94
2022/04/02 06:30:07;;;;;;;2.65;1.58;;;;;;;;;;6271526;22;20015;-93
2022/04/02 06:32:36;;;;;;;7.55;2.35;;;;;;;;;;6245539;22;20015;-92
2022/04/02 06:35:02;;;;;;;2.03;1.40;;;;;;;;;;6270529;22;20022;-92
2022/04/02 06:37:33;;;;;;;2.25;1.50;;;;;;;;;;6270089;22;20034;-92
2022/04/02 06:40:05;;;;;;;3.70;1.63;;;;;;;;;;6270379;22;20072;-92
2022/04/02 06:42:34;;;;;;;5.22;1.70;;;;;;;;;;6293060;22;20011;-92
2022/04/02 06:45:01;;;;;;;1.52;0.95;;;;;;;;;;6269652;22;20066;-92
2022/04/02 06:47:31;;;;;;;2.70;1.85;;;;;;;;;;6267909;22;20015;-92
2022/04/02 06:49:58;;;;;;;3.03;1.67;;;;;;;;;;6268943;22;20019;-92
2022/04/02 06:52:25;;;;;;;4.07;1.42;;;;;;;;;;6268428;22;20015;-92
2022/04/02 06:54:51;;;;;;;3.92;2.13;;;;;;;;;;6270647;22;20015;-93
2022/04/02 06:57:18;;;;;;;5.03;2.30;;;;;;;;;;6270688;22;20015;-93
2022/04/02 06:59:44;;;;;;;6.93;2.05;;;;;;;;;;6270611;22;20023;-93
2022/04/02 07:02:10;;;;;;;2.67;1.58;;;;;;;;;;6269726;22;20007;-92
2022/04/02 07:04:36;;;;;;;6.22;2.08;;;;;;;;;;6269942;22;20023;-94
2022/04/02 07:07:03;;;;;;;8.52;2.70;;;;;;;;;;6269572;22;20094;-93
2022/04/02 07:09:30;;;;;;;6.45;2.95;;;;;;;;;;6293482;22;20051;-92
2022/04/02 07:11:57;;;;;;;4.93;2.33;;;;;;;;;;6268162;22;20015;-93
2022/04/02 07:14:24;;;;;;;7.47;2.90;;;;;;;;;;6269195;22;20038;-93
2022/04/02 07:16:50;;;;;;;7.15;2.30;;;;;;;;;;6267799;22;20037;-93
2022/04/02 07:19:20;;;;;;;6.65;3.17;;;;;;;;;;6269309;22;20027;-93
2022/04/02 07:21:46;;;;;;;3.55;1.73;;;;;;;;;;6268995;22;20022;-93
2022/04/02 07:24:13;;;;;;;4.82;2.47;;;;;;;;;;6244862;22;20034;-93
2022/04/02 07:26:39;;;;;;;5.88;2.90;;;;;;;;;;6268492;22;20011;-93
2022/04/02 07:29:09;;;;;;;6.53;2.65;;;;;;;;;;6269393;22;20015;-92
2022/04/02 07:31:35;;;;;;;8.65;2.53;;;;;;;;;;6269827;22;20021;-92
2022/04/02 07:34:01;;;;;;;8.98;2.72;;;;;;;;;;6268839;22;20019;-92
2022/04/02 07:36:35;;;;;;;6.97;2.58;;;;;;;;;;6268051;22;20019;-93
2022/04/02 07:39:06;;;;;;;4.38;1.90;;;;;;;;;;6269641;22;20015;-92
2022/04/02 07:41:42;;;;;;;4.07;1.15;;;;;;;;;;6268024;22;20064;-91
2022/04/02 07:44:19;;;;;;;5.07;2.50;;;;;;;;;;6268634;22;20011;-92
2022/04/02 07:46:47;;;;;;;6.10;2.65;;;;;;;;;;6267575;22;20036;-92
2022/04/02 07:49:18;;;;;;;6.63;2.33;;;;;;;;;;6293528;22;20015;-91
2022/04/02 07:51:46;;;;;;;6.28;2.28;;;;;;;;;;6267924;22;20015;-92
2022/04/02 07:54:13;;;;;;;4.40;1.85;;;;;;;;;;6267832;22;20015;-91
2022/04/02 07:56:43;;;;;;;7.93;2.38;;;;;;;;;;6267907;22;20012;-91
2022/04/02 07:59:11;;;;;;;3.92;2.00;;;;;;;;;;6268428;22;20428;-92
2022/04/02 08:01:37;;;;;;;5.35;2.80;;;;;;;;;;6268790;22;20058;-91
2022/04/02 08:04:07;;;;;;;4.80;1.70;;;;;;;;;;6269079;22;20116;-93
2022/04/02 08:06:34;;;;;;;6.47;2.15;;;;;;;;;;6268321;22;20011;-92
2022/04/02 08:09:00;;;;;;;4.43;1.80;;;;;;;;;;6269687;22;20007;-92
2022/04/02 08:11:27;;;;;;;4.45;2.25;;;;;;;;;;6268817;22;20043;-90
2022/04/02 08:13:54;;;;;;;7.93;2.65;;;;;;;;;;6268902;22;20090;-92
2022/04/02 08:16:21;;;;;;;6.57;2.38;;;;;;;;;;6268860;22;20015;-90
2022/04/02 08:18:48;;;;;;;4.28;1.75;;;;;;;;;;6268344;22;20091;-92
2022/04/02 08:21:14;;;;;;;2.08;1.02;;;;;;;;;;6268575;22;20021;-92
2022/04/02 08:23:40;;;;;;;4.07;2.05;;;;;;;;;;6268490;22;20030;-93
2022/04/02 08:26:16;;;;;;;1.30;0.93;;;;;;;;;;6238005;22;20023;-92
2022/04/02 08:28:47;;;;;;;4.68;2.10;;;;;;;;;;6238489;22;20015;-92
2022/04/02 08:31:29;;;;;;;2.05;1.45;;;;;;;;;;6235614;22;20215;-91
2022/04/02 08:34:06;;;;;;;5.13;2.80;;;;;;;;;;6235524;22;20020;-91
2022/04/02 08:36:39;;;;;;;4.50;1.60;;;;;;;;;;6237465;22;20067;-91
2022/04/02 08:39:09;;;;;;;6.60;1.92;;;;;;;;;;6237632;22;20062;-91
2022/04/02 08:41:44;;;;;;;1.95;1.30;;;;;;;;;;6236473;22;20607;-91
2022/04/02 08:44:16;;;;;;;12.30;2.60;;;;;;;;;;6236812;22;20058;-91
2022/04/02 08:46:59;;;;;;;3.25;1.38;;;;;;;;;;6237215;22;20016;-91
2022/04/02 08:49:31;;;;;;;4.30;2.03;;;;;;;;;;6236754;22;20011;-91
2022/04/02 08:52:09;;;;;;;4.38;1.80;;;;;;;;;;6236545;22;20069;-91
2022/04/02 08:54:40;;;;;;;5.05;1.92;;;;;;;;;;6237243;22;20062;-91
2022/04/02 08:57:45;;;;;;;6.32;2.85;;;;;;;;;;6238728;22;20016;-91
2022/04/02 09:00:15;;;;;;;3.97;1.90;;;;;;;;;;6147595;23;20474;-91
2022/04/02 09:02:43;;;;;;;6.93;2.22;;;;;;;;;;6147070;23;20013;-91
2022/04/02 09:05:22;;;;;;;3.65;2.00;;;;;;;;;;6193993;22;20337;-91
2022/04/02 09:08:17;;;;;;;5.88;2.10;;;;;;;;;;6238548;22;20022;-91
2022/04/02 09:10:49;;;;;;;4.53;2.00;;;;;;;;;;6159462;22;20024;-90
2022/04/02 09:13:30;;;;;;;4.53;2.03;;;;;;;;;;6239110;22;20074;-91
2022/04/02 09:16:06;;;;;;;5.30;1.80;;;;;;;;;;6238627;22;20023;-91
2022/04/02 09:18:37;;;;;;;4.18;2.17;;;;;;;;;;6238822;22;20027;-92
2022/04/02 09:21:09;;;;;;;7.88;2.42;;;;;;;;;;6238374;22;20024;-92
2022/04/02 09:23:47;;;;;;;5.07;1.88;;;;;;;;;;6264806;22;20059;-91
2022/04/02 09:26:31;;;;;;;4.73;2.03;;;;;;;;;;6293919;22;20037;-92
2022/04/02 09:29:07;;;;;;;5.03;1.50;;;;;;;;;;6270807;22;20318;-92
2022/04/02 09:31:39;;;;;;;6.70;1.70;;;;;;;;;;6269512;22;20012;-92
2022/04/02 09:34:14;;;;;;;4.80;2.20;;;;;;;;;;6270015;22;20015;-91
2022/04/02 09:36:59;;;;;;;4.43;1.60;;;;;;;;;;6269546;22;20019;-92
2022/04/02 09:39:31;;;;;;;2.30;1.10;;;;;;;;;;6269542;22;20019;-91
2022/04/02 09:41:58;;;;;;;10.68;1.67;;;;;;;;;;6269100;22;20063;-90
2022/04/02 09:44:36;;;;;;;1.33;0.80;;;;;;;;;;6269152;22;20096;-92
2022/04/02 09:47:06;;;;;;;8.52;2.22;;;;;;;;;;6269100;22;20019;-91
2022/04/02 09:49:42;;;;;;;3.08;1.85;;;;;;;;;;6268282;22;20023;-91
2022/04/02 09:52:08;;;;;;;3.30;1.13;;;;;;;;;;6268426;22;20043;-92
2022/04/02 09:54:55;;;;;;;1.10;0.90;;;;;;;;;;6269595;22;20026;-91
2022/04/02 09:57:53;;;;;;;2.72;1.40;;;;;;;;;;6268517;22;20019;-91
2022/04/02 10:00:20;;;;;;;2.00;1.45;;;;;;;;;;6202858;22;20027;-92
2022/04/02 10:03:04;;;;;;;5.88;1.85;;;;;;;;;;6268977;22;20015;-91
2022/04/02 10:06:04;;;;;;;1.60;0.90;;;;;;;;;;6267334;22;20049;-91
2022/04/02 10:08:39;;;;;;;1.00;0.73;;;;;;;;;;6266552;22;20019;-92
2022/04/02 10:11:06;;;;;;;5.60;1.50;;;;;;;;;;6267437;22;20501;-91
2022/04/02 10:13:34;;;;;;;1.83;1.13;;;;;;;;;;6267896;22;20015;-90
2022/04/02 10:16:00;;;;;;;2.45;1.38;;;;;;;;;;6267769;22;20011;-92
2022/04/02 10:18:29;;;;;;;1.75;1.13;;;;;;;;;;6267517;22;20018;-91
2022/04/02 10:20:55;;;;;;;1.90;1.02;;;;;;;;;;6267853;22;20416;-91
2022/04/02 10:23:23;;;;;;;3.83;1.23;;;;;;;;;;6267692;22;20015;-91
2022/04/02 10:26:10;;;;;;;3.88;1.95;;;;;;;;;;6268293;22;20015;-91
2022/04/02 10:28:49;;;;;;;19.60;4.35;;;;;;;;;;6266995;22;20018;-91
2022/04/02 10:31:25;;;;;;;2.55;0.70;;;;;;;;;;6268421;22;20093;-91
2022/04/02 10:33:53;;;;;;;1.52;0.90;;;;;;;;;;6292881;22;20022;-91
2022/04/02 10:36:20;;;;;;;0.60;0.60;;;;;;;;;;6267096;22;20027;-91
2022/04/02 10:38:49;;;;;;;3.30;0.85;;;;;;;;;;6268573;22;20410;-92
2022/04/02 10:41:17;;;;;;;3.45;1.40;;;;;;;;;;6267704;22;20019;-92
2022/04/02 10:43:58;;;;;;;1.98;0.70;;;;;;;;;;6268844;22;20069;-92
2022/04/02 10:46:25;;;;;;;1.60;0.77;;;;;;;;;;6267145;22;20059;-92
2022/04/02 10:49:01;;;;;;;0.57;0.50;;;;;;;;;;6269550;22;20015;-91
2022/04/02 10:51:29;;;;;;;0.85;0.38;;;;;;;;;;6293090;22;20050;-91
2022/04/02 10:54:16;;;;;;;2.40;1.13;;;;;;;;;;6269079;22;20103;-91
2022/04/02 10:56:44;;;;;;;0.93;0.63;;;;;;;;;;6293625;22;20046;-92
2022/04/02 10:59:10;;;;;;;3.22;0.70;;;;;;;;;;6267676;22;20022;-92
2022/04/02 11:01:40;;;;;;;1.48;0.60;;;;;;;;;;6267735;22;20019;-91
2022/04/02 11:04:21;;;;;;;3.30;0.75;;;;;;;;;;6267911;22;20077;-91
2022/04/02 11:06:51;;;;;;;2.70;1.23;;;;;;;;;;6266807;22;20023;-92
2022/04/02 11:09:28;;;;;;;0.88;0.70;;;;;;;;;;6267577;22;20101;-89
2022/04/02 11:11:56;;;;;;;3.63;1.02;;;;;;;;;;6267743;22;20019;-91
2022/04/02 11:14:22;;;;;;;1.50;0.80;;;;;;;;;;6269129;22;20011;-90
2022/04/02 11:16:48;;;;;;;3.97;1.50;;;;;;;;;;6268601;22;20030;-92
2022/04/02 11:22:07;;;;;;;3.53;1.80;;;;;;;;;;6294090;22;20019;-93
2022/04/02 11:25:03;;;;;;;4.17;1.37;;;;;;;;;;6268939;22;20034;-93
2022/04/02 11:27:29;;;;;;;4.32;1.50;;;;;;;;;;6248797;22;20456;-92
2022/04/02 11:30:05;;;;;;;3.22;1.42;;;;;;;;;;6268605;22;20087;-92
2022/04/02 11:32:37;;;;;;;5.47;1.55;;;;;;;;;;6267954;22;20018;-91
2022/04/02 11:35:07;;;;;;;6.30;1.60;;;;;;;;;;6268488;22;20011;-91
2022/04/02 11:37:36;;;;;;;6.00;1.92;;;;;;;;;;6268140;22;20015;-93
2022/04/02 11:40:08;;;;;;;3.28;1.70;;;;;;;;;;6295329;22;20011;-92
2022/04/02 11:42:36;;;;;;;2.28;1.27;;;;;;;;;;6293980;22;20015;-91
2022/04/02 11:45:08;;;;;;;2.05;1.30;;;;;;;;;;6295153;22;20011;-91
2022/04/02 11:47:36;;;;;;;3.65;1.20;;;;;;;;;;6268429;22;20026;-92
2022/04/02 11:50:04;;;;;;;1.65;1.05;;;;;;;;;;6268386;22;20020;-92
2022/04/02 11:52:48;;;;;;;2.92;1.33;;;;;;;;;;6268675;22;20022;-92
2022/04/02 11:55:15;;;;;;;2.15;1.15;;;;;;;;;;6269258;22;20136;-92
2022/04/02 11:58:03;;;;;;;0.68;0.65;;;;;;;;;;6268533;22;20015;-91
2022/04/02 12:00:30;;;;;;;2.30;1.20;;;;;;;;;;6268898;22;20026;-92
2022/04/02 12:02:57;;;;;;;2.22;1.10;;;;;;;;;;6268924;22;20112;-91
2022/04/02 12:05:33;;;;;;;4.30;1.50;;;;;;;;;;6268409;22;20011;-91
2022/04/02 12:08:03;;;;;;;5.68;1.65;;;;;;;;;;6269130;22;20038;-91
2022/04/02 12:10:31;;;;;;;3.13;1.38;;;;;;;;;;6269682;22;20026;-92
2022/04/02 12:12:58;;;;;;;2.42;0.88;;;;;;;;;;6269432;22;20011;-92
2022/04/02 12:15:27;;;;;;;4.10;0.90;;;;;;;;;;6295003;22;20067;-92
2022/04/02 12:17:59;;;;;;;1.33;1.02;;;;;;;;;;6243040;22;20019;-92
2022/04/02 12:20:30;;;;;;;0.32;0.32;;;;;;;;;;6290845;22;20356;-92
2022/04/02 12:23:25;;;;;;;3.75;1.30;;;;;;;;;;6265575;22;20059;-90
2022/04/02 12:25:55;;;;;;;5.43;3.17;;;;;;;;;;6246618;22;20015;-91
2022/04/02 12:28:21;;;;;;;1.25;0.90;;;;;;;;;;6265841;22;20042;-91
2022/04/02 12:30:49;;;;;;;1.20;0.70;;;;;;;;;;6266959;22;20015;-88
2022/04/02 12:33:15;;;;;;;0.85;0.63;;;;;;;;;;6263529;22;20367;-88
2022/04/02 12:35:46;;;;;;;3.83;1.38;;;;;;;;;;6264842;22;20011;-89
2022/04/02 12:38:22;;;;;;;3.97;1.30;;;;;;;;;;6265492;22;20053;-87
2022/04/02 12:40:49;;;;;;;1.50;0.70;;;;;;;;;;6284065;22;20012;-88
2022/04/02 12:43:23;;;;;;;2.80;1.35;;;;;;;;;;6259429;22;20098;-86
2022/04/02 12:45:49;;;;;;;1.00;0.90;;;;;;;;;;6264182;22;20012;-86
2022/04/02 12:48:17;;;;;;;4.38;0.70;;;;;;;;;;6266339;22;20021;-91
2022/04/02 12:50:51;;;;;;;3.65;1.75;;;;;;;;;;6267906;22;20038;-91
2022/04/02 12:53:30;;;;;;;4.63;1.38;;;;;;;;;;6270347;22;20016;-87
2022/04/02 12:55:57;;;;;;;1.88;1.20;;;;;;;;;;6265058;22;20076;-87
2022/04/02 12:58:34;;;;;;;2.63;0.93;;;;;;;;;;6290854;22;20021;-88
2022/04/02 13:01:29;;;;;;;1.45;0.85;;;;;;;;;;6263047;22;20094;-87
2022/04/02 13:04:03;;;;;;;2.10;1.30;;;;;;;;;;6258935;22;20015;-88
2022/04/02 13:06:32;;;;;;;4.32;1.85;;;;;;;;;;6263334;22;20384;-88
2022/04/02 13:09:04;;;;;;;2.33;1.38;;;;;;;;;;6262508;22;20007;-90
2022/04/02 13:11:49;;;;;;;4.25;1.73;;;;;;;;;;6264558;22;20092;-89
2022/04/02 13:14:26;;;;;;;4.40;1.70;;;;;;;;;;6261588;22;20058;-88
2022/04/02 13:16:54;;;;;;;3.75;1.67;;;;;;;;;;6288794;22;20058;-88
2022/04/02 13:22:08;;;;;;;5.50;1.02;;;;;;;;;;6289289;22;20018;-88
2022/04/02 13:24:42;;;;;;;3.88;1.30;;;;;;;;;;6264780;22;20054;-89
2022/04/02 13:27:09;;;;;;;3.77;0.90;;;;;;;;;;6261187;22;20100;-88
2022/04/02 13:29:35;;;;;;;4.45;1.05;;;;;;;;;;6262686;22;20018;-89
2022/04/02 13:32:14;;;;;;;1.65;1.00;;;;;;;;;;6263571;22;20519;-91
2022/04/02 13:34:41;;;;;;;1.27;0.90;;;;;;;;;;6269100;22;20011;-91
2022/04/02 13:37:26;;;;;;;3.50;1.83;;;;;;;;;;6267972;22;20012;-91
2022/04/02 13:39:53;;;;;;;5.00;1.30;;;;;;;;;;6268232;22;20046;-91
2022/04/02 13:42:26;;;;;;;2.35;1.40;;;;;;;;;;6266408;22;20022;-91
2022/04/02 13:44:54;;;;;;;3.55;1.48;;;;;;;;;;6266860;22;20065;-90
2022/04/02 13:47:23;;;;;;;2.72;1.17;;;;;;;;;;6294347;22;20098;-92
2022/04/02 13:49:52;;;;;;;5.03;1.40;;;;;;;;;;6269619;22;20021;-91
2022/04/02 13:52:23;;;;;;;2.13;1.30;;;;;;;;;;6296817;22;20015;-92
2022/04/02 13:55:07;;;;;;;2.20;0.98;;;;;;;;;;6269555;22;20045;-92
2022/04/02 13:57:34;;;;;;;1.40;0.75;;;;;;;;;;6268894;22;20082;-90
2022/04/02 14:00:13;;;;;;;3.35;1.35;;;;;;;;;;6244534;22;20054;-92
2022/04/02 14:02:42;;;;;;;1.17;0.82;;;;;;;;;;6269154;22;20428;-93
2022/04/02 14:05:25;;;;;;;4.68;1.40;;;;;;;;;;6268939;22;20061;-90
2022/04/02 14:07:57;;;;;;;2.30;1.08;;;;;;;;;;6267381;22;20030;-93
2022/04/02 14:10:23;;;;;;;3.78;1.58;;;;;;;;;;6269881;22;20023;-92
2022/04/02 14:12:50;;;;;;;3.50;1.67;;;;;;;;;;6267112;22;20023;-89
2022/04/02 14:15:16;;;;;;;4.50;1.70;;;;;;;;;;6264003;22;20039;-91
2022/04/02 14:17:43;;;;;;;8.55;1.80;;;;;;;;;;6266447;22;20043;-91
2022/04/02 14:20:12;;;;;;;2.47;1.50;;;;;;;;;;6265614;22;20011;-91
2022/04/02 14:22:57;;;;;;;1.98;1.23;;;;;;;;;;6265810;22;20012;-91
2022/04/02 14:25:49;;;;;;;1.70;0.75;;;;;;;;;;6265903;22;20011;-91
2022/04/02 14:28:36;;;;;;;4.53;1.38;;;;;;;;;;6258025;22;20015;-91
2022/04/02 14:31:19;;;;;;;3.22;1.58;;;;;;;;;;6266086;22;20054;-91
2022/04/02 14:33:48;;;;;;;3.97;1.50;;;;;;;;;;6266623;22;20019;-91
2022/04/02 14:36:28;;;;;;;5.78;1.23;;;;;;;;;;6265989;22;20023;-90
2022/04/02 14:39:18;;;;;;;2.05;1.50;;;;;;;;;;6265623;22;20102;-91
2022/04/02 14:42:04;;;;;;;5.90;1.98;;;;;;;;;;6224181;22;20019;-91
2022/04/02 14:44:49;;;;;;;3.88;1.70;;;;;;;;;;6266272;22;20015;-91
2022/04/02 14:47:30;;;;;;;3.63;1.25;;;;;;;;;;6266716;22;20043;-91
2022/04/02 14:50:12;;;;;;;5.43;1.40;;;;;;;;;;6266843;22;20015;-91
2022/04/02 14:52:47;;;;;;;3.03;1.20;;;;;;;;;;6266925;22;20019;-91
2022/04/02 14:55:19;;;;;;;1.70;1.10;;;;;;;;;;6267064;22;20011;-91
2022/04/02 14:58:00;;;;;;;5.07;1.70;;;;;;;;;;6266556;22;20018;-92
2022/04/02 15:00:32;;;;;;;2.75;1.05;;;;;;;;;;6267393;22;20072;-91
2022/04/02 15:03:28;;;;;;;3.20;1.70;;;;;;;;;;6266855;22;20007;-92
2022/04/02 15:06:13;;;;;;;2.53;1.05;;;;;;;;;;6246382;22;20038;-91
2022/04/02 15:08:39;;;;;;;5.38;1.33;;;;;;;;;;6264936;22;20367;-90
2022/04/02 15:11:11;;;;;;;3.40;1.30;;;;;;;;;;6264827;22;20076;-91
2022/04/02 15:13:38;;;;;;;5.32;1.10;;;;;;;;;;6266267;22;20286;-91